createdAt,value
2023-01-15T00:05:26.294Z,0.88
2023-01-15T00:12:09.054Z,2.47
2023-01-15T00:18:59.874Z,0.70
2023-01-15T00:26:01.984Z,0.70
2023-01-15T00:32:44.830Z,0.80
2023-01-15T00:39:27.301Z,0.90
2023-01-15T00:46:10.290Z,0.88
2023-01-15T00:52:52.860Z,0.70
2023-01-15T00:59:36.465Z,0.80
2023-01-15T01:06:20.952Z,1.10
2023-01-15T01:13:03.323Z,1.00
2023-01-15T01:19:46.335Z,2.33
2023-01-15T01:26:29.776Z,0.90
2023-01-15T01:33:12.117Z,0.70
2023-01-15T01:39:55.413Z,0.70
2023-01-15T01:46:37.754Z,0.70
2023-01-15T01:53:26.887Z,0.52
2023-01-15T02:00:11.410Z,0.70
2023-01-15T02:06:59.126Z,0.70
2023-01-15T02:13:55.329Z,0.50
2023-01-15T02:20:46.647Z,0.73
2023-01-15T02:27:30.325Z,0.60
2023-01-15T02:34:23.594Z,0.80
2023-01-15T02:41:16.223Z,0.60
2023-01-15T02:48:08.738Z,0.50
2023-01-15T02:55:07.660Z,0.70
2023-01-15T03:02:05.040Z,0.52
2023-01-15T03:08:47.844Z,0.60
2023-01-15T03:16:10.408Z,0.80
2023-01-15T03:23:00.575Z,0.65
2023-01-15T03:29:47.078Z,0.70
2023-01-15T03:36:30.855Z,0.57
2023-01-15T03:43:39.641Z,0.60
2023-01-15T03:50:28.020Z,0.60
2023-01-15T03:57:23.772Z,0.50
2023-01-15T04:04:07.096Z,0.50
2023-01-15T04:10:52.965Z,0.50
2023-01-15T04:17:36.108Z,0.20
2023-01-15T04:24:19.032Z,0.57
2023-01-15T04:31:02.731Z,0.60
2023-01-15T04:37:45.648Z,0.63
2023-01-15T04:44:29.245Z,0.30
2023-01-15T04:51:11.542Z,0.52
2023-01-15T04:57:53.928Z,0.40
2023-01-15T05:04:40.665Z,0.40
2023-01-15T05:11:23.707Z,0.50
2023-01-15T05:18:06.373Z,0.40
2023-01-15T05:24:48.751Z,0.77
2023-01-15T05:31:31.548Z,0.50
2023-01-15T05:38:13.927Z,0.75
2023-01-15T05:44:56.360Z,0.93
2023-01-15T05:51:39.688Z,1.00
2023-01-15T05:58:21.971Z,0.90
2023-01-15T06:05:05.811Z,1.10
2023-01-15T06:11:48.350Z,0.80
2023-01-15T06:18:30.773Z,0.82
2023-01-15T06:25:13.161Z,0.73
2023-01-15T06:31:55.474Z,0.70
2023-01-15T06:38:39.189Z,0.65
2023-01-15T06:45:40.352Z,0.63
2023-01-15T06:52:24.934Z,0.75
2023-01-15T06:59:07.247Z,0.57
2023-01-15T07:05:50.161Z,0.40
2023-01-15T07:12:35.073Z,0.40
2023-01-15T07:19:18.685Z,0.40
2023-01-15T07:26:01.045Z,0.40
2023-01-15T07:32:43.439Z,0.40
2023-01-15T07:39:26.215Z,0.55
2023-01-15T07:46:29.821Z,0.50
2023-01-15T07:53:12.108Z,0.60
2023-01-15T07:59:54.468Z,0.70
2023-01-15T08:06:36.918Z,0.60
2023-01-15T08:13:37.876Z,0.60
2023-01-15T08:20:22.907Z,0.57
2023-01-15T08:27:06.140Z,0.60
2023-01-15T08:33:48.432Z,0.55
2023-01-15T08:40:31.055Z,0.70
2023-01-15T08:47:13.839Z,0.40
2023-01-15T08:53:56.181Z,0.47
2023-01-15T09:00:38.548Z,1.27
2023-01-15T09:07:20.939Z,0.60
2023-01-15T09:14:03.353Z,0.70
2023-01-15T09:20:46.613Z,0.60
2023-01-15T09:27:29.123Z,1.10
2023-01-15T09:34:11.605Z,0.68
2023-01-15T09:41:03.593Z,0.80
2023-01-15T09:47:51.784Z,0.80
2023-01-15T09:55:02.763Z,1.10
2023-01-15T10:01:45.482Z,0.60
2023-01-15T10:08:48.818Z,0.80
2023-01-15T10:15:41.911Z,1.08
2023-01-15T10:22:43.494Z,1.10
2023-01-15T10:29:44.029Z,0.90
2023-01-15T10:36:34.754Z,1.17
2023-01-15T10:43:35.707Z,0.60
2023-01-15T10:50:23.492Z,0.75
2023-01-15T10:57:12.238Z,0.43
2023-01-15T11:03:54.747Z,0.60
2023-01-15T11:10:41.229Z,0.50
2023-01-15T11:17:46.441Z,0.82
2023-01-15T11:24:28.820Z,0.80
2023-01-15T11:31:12.652Z,1.08
2023-01-15T11:38:14.749Z,1.10
2023-01-15T11:45:17.323Z,0.77
2023-01-15T11:52:03.286Z,0.68
2023-01-15T11:58:49.676Z,0.70
2023-01-15T12:05:35.563Z,0.93
2023-01-15T12:12:37.199Z,0.77
2023-01-15T12:19:51.429Z,0.88
2023-01-15T12:26:35.495Z,0.60
2023-01-15T12:33:36.015Z,0.75
2023-01-15T12:40:25.146Z,0.90
2023-01-15T12:47:14.735Z,0.70
2023-01-15T12:54:04.299Z,1.08
2023-01-15T13:00:49.208Z,0.82
2023-01-15T13:07:36.582Z,0.68
2023-01-15T13:14:21.637Z,0.70
2023-01-15T13:21:12.170Z,0.88
2023-01-15T13:28:03.322Z,1.02
2023-01-15T13:34:55.104Z,0.98
2023-01-15T13:41:56.262Z,0.98
2023-01-15T13:48:50.143Z,1.30
2023-01-15T13:55:39.626Z,1.13
2023-01-15T14:02:31.799Z,1.00
2023-01-15T14:09:17.024Z,1.17
2023-01-15T14:16:11.921Z,0.80
2023-01-15T14:23:06.464Z,1.42
2023-01-15T14:30:10.689Z,1.10
2023-01-15T14:37:02.054Z,1.08
2023-01-15T14:43:49.438Z,0.90
2023-01-15T14:50:34.727Z,1.17
2023-01-15T14:57:18.076Z,1.30
2023-01-15T15:04:12.271Z,1.20
2023-01-15T15:10:56.424Z,1.27
2023-01-15T15:17:56.272Z,1.20
2023-01-15T15:24:47.002Z,1.30
2023-01-15T15:31:33.589Z,1.27
2023-01-15T15:38:20.556Z,1.30
2023-01-15T15:45:25.433Z,1.20
2023-01-15T15:52:23.919Z,1.10
2023-01-15T15:59:06.608Z,1.00
2023-01-15T16:06:01.083Z,1.10
2023-01-15T16:12:52.738Z,1.23
2023-01-15T16:19:35.314Z,1.48
2023-01-15T16:26:22.913Z,1.30
2023-01-15T16:33:07.426Z,1.13
2023-01-15T16:39:49.926Z,1.38
2023-01-15T16:46:49.630Z,0.93
2023-01-15T16:53:39.310Z,1.20
2023-01-15T17:00:30.797Z,1.33
2023-01-15T17:07:20.806Z,1.42
2023-01-15T17:14:22.585Z,1.45
2023-01-15T17:21:05.726Z,1.33
2023-01-15T17:27:48.141Z,1.30
2023-01-15T17:34:33.353Z,1.92
2023-01-15T17:41:17.706Z,1.50
2023-01-15T17:48:02.328Z,1.88
2023-01-15T17:55:03.120Z,1.40
2023-01-15T18:02:06.471Z,1.45
2023-01-15T18:08:55.443Z,1.85
2023-01-15T18:15:37.953Z,1.67
2023-01-15T18:22:20.592Z,1.70
2023-01-15T18:29:03.889Z,1.55
2023-01-15T18:35:46.234Z,1.40
2023-01-15T18:42:47.089Z,1.35
2023-01-15T18:49:30.714Z,1.63
2023-01-15T18:56:33.010Z,1.45
2023-01-15T19:03:15.330Z,1.85
2023-01-15T19:09:57.688Z,1.63
2023-01-15T19:16:59.578Z,1.58
2023-01-15T19:23:41.882Z,2.10
2023-01-15T19:30:25.626Z,1.90
2023-01-15T19:37:07.957Z,1.50
2023-01-15T19:44:08.653Z,1.63
2023-01-15T19:50:54.113Z,1.30
2023-01-15T19:57:37.550Z,1.70
2023-01-15T20:04:19.830Z,1.58
2023-01-15T20:11:02.246Z,1.52
2023-01-15T20:17:44.736Z,1.40
2023-01-15T20:24:27.033Z,1.83
2023-01-15T20:31:19.270Z,1.35
2023-01-15T20:38:01.882Z,1.48
2023-01-15T20:44:53.151Z,1.80
2023-01-15T20:51:35.908Z,1.40
2023-01-15T20:58:18.473Z,1.35
2023-01-15T21:05:00.833Z,1.58
2023-01-15T21:11:43.448Z,1.60
2023-01-15T21:18:28.051Z,1.63
2023-01-15T21:25:11.155Z,1.83
2023-01-15T21:31:53.962Z,1.30
2023-01-15T21:38:36.797Z,1.50
2023-01-15T21:45:19.454Z,1.52
2023-01-15T21:52:12.596Z,1.60
2023-01-15T21:58:55.017Z,1.95
2023-01-15T22:05:37.358Z,1.73
2023-01-15T22:12:19.767Z,1.40
2023-01-15T22:19:02.363Z,1.90
2023-01-15T22:25:46.190Z,1.63
2023-01-15T22:32:28.637Z,2.50
2023-01-15T22:39:10.915Z,2.10
2023-01-15T22:45:53.320Z,1.63
2023-01-15T22:52:36.069Z,1.30
2023-01-15T22:59:19.369Z,1.52
2023-01-15T23:06:06.887Z,1.70
2023-01-15T23:12:49.191Z,1.67
2023-01-15T23:19:31.551Z,1.30
2023-01-15T23:26:17.700Z,1.52
2023-01-15T23:33:00.250Z,1.48
2023-01-15T23:39:42.617Z,1.52
2023-01-15T23:46:35.515Z,1.65
2023-01-15T23:53:17.968Z,1.40
